sensor_id;sensor_type;location;lat;lon;timestamp;temperature;humidity
66013;DHT22;52783;50.502;8.190;2024-03-23T00:54:05;8.70;99.90
66013;DHT22;52783;50.502;8.190;2024-03-23T00:56:30;8.60;99.90
66013;DHT22;52783;50.502;8.190;2024-03-23T00:58:56;8.70;99.90
66013;DHT22;52783;50.502;8.190;2024-03-23T01:01:21;8.70;99.90
66013;DHT22;52783;50.502;8.190;2024-03-23T01:03:47;8.80;99.90
66013;DHT22;52783;50.502;8.190;2024-03-23T01:06:13;8.80;99.90
66013;DHT22;52783;50.502;8.190;2024-03-23T01:08:38;8.70;99.90
66013;DHT22;52783;50.502;8.190;2024-03-23T01:11:04;8.80;99.90
66013;DHT22;52783;50.502;8.190;2024-03-23T01:13:29;8.70;99.90
66013;DHT22;52783;50.502;8.190;2024-03-23T01:15:56;8.80;99.90
66013;DHT22;52783;50.502;8.190;2024-03-23T01:18:22;8.60;99.90
66013;DHT22;52783;50.502;8.190;2024-03-23T01:20:48;8.70;99.90
66013;DHT22;52783;50.502;8.190;2024-03-23T01:23:14;8.70;99.90
66013;DHT22;52783;50.502;8.190;2024-03-23T01:25:40;8.80;99.90
66013;DHT22;52783;50.502;8.190;2024-03-23T01:28:06;8.80;99.90
66013;DHT22;52783;50.502;8.190;2024-03-23T01:30:32;8.90;99.90
66013;DHT22;52783;50.502;8.190;2024-03-23T01:32:57;8.90;99.90
66013;DHT22;52783;50.502;8.190;2024-03-23T01:35:23;8.90;99.90
66013;DHT22;52783;50.502;8.190;2024-03-23T01:37:49;8.80;99.90
66013;DHT22;52783;50.502;8.190;2024-03-23T01:40:16;8.60;99.90
66013;DHT22;52783;50.502;8.190;2024-03-23T01:42:42;8.60;99.90
66013;DHT22;52783;50.502;8.190;2024-03-23T01:45:08;8.70;99.90
66013;DHT22;52783;50.502;8.190;2024-03-23T01:47:35;8.80;99.90
66013;DHT22;52783;50.502;8.190;2024-03-23T01:50:00;8.70;99.90
66013;DHT22;52783;50.502;8.190;2024-03-23T01:52:27;8.70;99.90
66013;DHT22;52783;50.502;8.190;2024-03-23T01:54:53;8.60;99.90
66013;DHT22;52783;50.502;8.190;2024-03-23T01:57:19;8.50;99.90
66013;DHT22;52783;50.502;8.190;2024-03-23T01:59:46;8.60;99.90
66013;DHT22;52783;50.502;8.190;2024-03-23T02:02:12;8.70;99.90
66013;DHT22;52783;50.502;8.190;2024-03-23T02:04:38;8.60;99.90
66013;DHT22;52783;50.502;8.190;2024-03-23T02:07:04;8.70;99.90
66013;DHT22;52783;50.502;8.190;2024-03-23T02:09:30;8.70;99.90
66013;DHT22;52783;50.502;8.190;2024-03-23T02:11:57;8.70;99.90
66013;DHT22;52783;50.502;8.190;2024-03-23T02:14:23;8.80;99.90
66013;DHT22;52783;50.502;8.190;2024-03-23T02:16:48;8.70;99.90
66013;DHT22;52783;50.502;8.190;2024-03-23T02:19:14;8.70;99.90
66013;DHT22;52783;50.502;8.190;2024-03-23T02:21:39;8.80;99.90
66013;DHT22;52783;50.502;8.190;2024-03-23T02:24:05;8.70;99.90
66013;DHT22;52783;50.502;8.190;2024-03-23T02:26:31;8.60;99.90
66013;DHT22;52783;50.502;8.190;2024-03-23T02:28:57;8.60;99.90
66013;DHT22;52783;50.502;8.190;2024-03-23T02:31:23;8.50;99.90
66013;DHT22;52783;50.502;8.190;2024-03-23T02:33:48;8.50;99.90
66013;DHT22;52783;50.502;8.190;2024-03-23T02:36:14;8.60;99.90
66013;DHT22;52783;50.502;8.190;2024-03-23T02:38:39;8.60;99.90
66013;DHT22;52783;50.502;8.190;2024-03-23T02:41:05;8.60;99.90
66013;DHT22;52783;50.502;8.190;2024-03-23T02:43:31;8.60;99.90
66013;DHT22;52783;50.502;8.190;2024-03-23T02:45:57;8.60;99.90
66013;DHT22;52783;50.502;8.190;2024-03-23T02:48:22;8.50;99.90
66013;DHT22;52783;50.502;8.190;2024-03-23T02:50:49;8.50;99.90
66013;DHT22;52783;50.502;8.190;2024-03-23T02:53:14;8.40;99.90
66013;DHT22;52783;50.502;8.190;2024-03-23T02:55:40;8.40;99.90
66013;DHT22;52783;50.502;8.190;2024-03-23T02:58:05;8.30;99.90
66013;DHT22;52783;50.502;8.190;2024-03-23T03:00:31;8.20;99.90
66013;DHT22;52783;50.502;8.190;2024-03-23T03:02:56;8.10;99.90
66013;DHT22;52783;50.502;8.190;2024-03-23T03:05:22;8.10;99.90
66013;DHT22;52783;50.502;8.190;2024-03-23T03:07:47;7.90;99.90
66013;DHT22;52783;50.502;8.190;2024-03-23T03:10:13;7.70;99.90
66013;DHT22;52783;50.502;8.190;2024-03-23T03:12:38;7.60;99.90
66013;DHT22;52783;50.502;8.190;2024-03-23T03:15:04;7.50;99.90
66013;DHT22;52783;50.502;8.190;2024-03-23T03:17:30;7.40;99.90
66013;DHT22;52783;50.502;8.190;2024-03-23T03:19:56;7.20;99.90
66013;DHT22;52783;50.502;8.190;2024-03-23T03:22:22;7.20;99.90
66013;DHT22;52783;50.502;8.190;2024-03-23T03:24:48;7.20;99.90
66013;DHT22;52783;50.502;8.190;2024-03-23T03:27:13;7.10;99.90
66013;DHT22;52783;50.502;8.190;2024-03-23T03:29:39;7.10;99.90
66013;DHT22;52783;50.502;8.190;2024-03-23T03:32:05;7.00;99.90
66013;DHT22;52783;50.502;8.190;2024-03-23T03:34:31;6.90;99.90
66013;DHT22;52783;50.502;8.190;2024-03-23T03:36:57;6.90;99.90
66013;DHT22;52783;50.502;8.190;2024-03-23T03:39:23;6.80;99.90
66013;DHT22;52783;50.502;8.190;2024-03-23T03:41:49;6.60;99.90
66013;DHT22;52783;50.502;8.190;2024-03-23T03:44:15;6.60;99.90
66013;DHT22;52783;50.502;8.190;2024-03-23T03:46:40;6.50;99.90
66013;DHT22;52783;50.502;8.190;2024-03-23T03:49:06;6.60;99.90
66013;DHT22;52783;50.502;8.190;2024-03-23T03:51:31;6.60;99.90
66013;DHT22;52783;50.502;8.190;2024-03-23T03:53:57;6.70;99.90
66013;DHT22;52783;50.502;8.190;2024-03-23T03:56:22;6.70;99.90
66013;DHT22;52783;50.502;8.190;2024-03-23T03:58:48;6.70;99.90
66013;DHT22;52783;50.502;8.190;2024-03-23T04:01:14;6.60;99.90
66013;DHT22;52783;50.502;8.190;2024-03-23T04:03:39;6.60;99.90
66013;DHT22;52783;50.502;8.190;2024-03-23T04:06:12;6.70;99.90
66013;DHT22;52783;50.502;8.190;2024-03-23T04:08:43;6.80;99.90
66013;DHT22;52783;50.502;8.190;2024-03-23T04:11:09;6.90;99.90
66013;DHT22;52783;50.502;8.190;2024-03-23T04:13:34;6.90;99.90
66013;DHT22;52783;50.502;8.190;2024-03-23T04:16:00;6.90;99.90
66013;DHT22;52783;50.502;8.190;2024-03-23T04:18:25;6.80;99.90
66013;DHT22;52783;50.502;8.190;2024-03-23T04:20:51;6.80;99.90
66013;DHT22;52783;50.502;8.190;2024-03-23T04:23:17;6.70;99.90
66013;DHT22;52783;50.502;8.190;2024-03-23T04:25:43;6.80;99.90
66013;DHT22;52783;50.502;8.190;2024-03-23T04:28:08;6.80;99.90
66013;DHT22;52783;50.502;8.190;2024-03-23T04:30:34;6.80;99.90
66013;DHT22;52783;50.502;8.190;2024-03-23T04:32:59;6.90;99.90
66013;DHT22;52783;50.502;8.190;2024-03-23T04:35:26;6.90;99.90
66013;DHT22;52783;50.502;8.190;2024-03-23T04:37:52;6.90;99.90
66013;DHT22;52783;50.502;8.190;2024-03-23T04:40:18;7.00;99.90
66013;DHT22;52783;50.502;8.190;2024-03-23T04:42:44;7.00;99.90
66013;DHT22;52783;50.502;8.190;2024-03-23T04:45:10;6.90;99.90
66013;DHT22;52783;50.502;8.190;2024-03-23T04:47:37;6.80;99.90
66013;DHT22;52783;50.502;8.190;2024-03-23T04:50:04;6.80;99.90
66013;DHT22;52783;50.502;8.190;2024-03-23T04:52:29;6.90;99.90
66013;DHT22;52783;50.502;8.190;2024-03-23T04:54:55;6.70;99.90
66013;DHT22;52783;50.502;8.190;2024-03-23T04:57:21;6.60;99.90
66013;DHT22;52783;50.502;8.190;2024-03-23T04:59:46;6.60;99.90
66013;DHT22;52783;50.502;8.190;2024-03-23T05:02:13;6.50;99.90
66013;DHT22;52783;50.502;8.190;2024-03-23T05:04:38;6.40;99.90
66013;DHT22;52783;50.502;8.190;2024-03-23T05:07:04;6.30;99.90
66013;DHT22;52783;50.502;8.190;2024-03-23T05:09:30;6.10;99.90
66013;DHT22;52783;50.502;8.190;2024-03-23T05:11:56;6.10;99.90
66013;DHT22;52783;50.502;8.190;2024-03-23T05:14:22;6.00;99.90
66013;DHT22;52783;50.502;8.190;2024-03-23T05:16:47;5.90;99.90
66013;DHT22;52783;50.502;8.190;2024-03-23T05:19:13;5.70;99.90
66013;DHT22;52783;50.502;8.190;2024-03-23T05:21:38;5.50;99.90
66013;DHT22;52783;50.502;8.190;2024-03-23T05:24:05;5.50;99.90
66013;DHT22;52783;50.502;8.190;2024-03-23T05:26:30;5.30;99.90
66013;DHT22;52783;50.502;8.190;2024-03-23T05:28:56;5.30;99.90
66013;DHT22;52783;50.502;8.190;2024-03-23T05:31:29;5.10;99.90
66013;DHT22;52783;50.502;8.190;2024-03-23T05:33:55;5.20;99.90
66013;DHT22;52783;50.502;8.190;2024-03-23T05:36:21;5.10;99.90
66013;DHT22;52783;50.502;8.190;2024-03-23T05:38:47;5.10;99.90
66013;DHT22;52783;50.502;8.190;2024-03-23T05:41:13;5.10;99.90
66013;DHT22;52783;50.502;8.190;2024-03-23T05:43:38;5.10;99.90
66013;DHT22;52783;50.502;8.190;2024-03-23T05:46:04;5.10;99.90
66013;DHT22;52783;50.502;8.190;2024-03-23T05:48:31;5.20;99.90
66013;DHT22;52783;50.502;8.190;2024-03-23T05:50:57;5.10;99.90
66013;DHT22;52783;50.502;8.190;2024-03-23T05:53:23;5.10;99.90
66013;DHT22;52783;50.502;8.190;2024-03-23T05:55:49;5.20;99.90
66013;DHT22;52783;50.502;8.190;2024-03-23T05:58:16;5.20;99.90
66013;DHT22;52783;50.502;8.190;2024-03-23T06:00:42;5.20;99.90
66013;DHT22;52783;50.502;8.190;2024-03-23T06:03:09;5.20;99.90
66013;DHT22;52783;50.502;8.190;2024-03-23T06:05:35;5.20;99.90
66013;DHT22;52783;50.502;8.190;2024-03-23T06:08:01;5.20;99.90
66013;DHT22;52783;50.502;8.190;2024-03-23T06:10:27;5.20;99.90
66013;DHT22;52783;50.502;8.190;2024-03-23T06:12:53;5.10;99.90
66013;DHT22;52783;50.502;8.190;2024-03-23T06:15:19;5.10;99.90
66013;DHT22;52783;50.502;8.190;2024-03-23T06:17:45;5.40;99.90
66013;DHT22;52783;50.502;8.190;2024-03-23T06:20:10;5.40;99.90
66013;DHT22;52783;50.502;8.190;2024-03-23T06:22:36;5.40;99.90
66013;DHT22;52783;50.502;8.190;2024-03-23T06:25:02;5.40;99.90
66013;DHT22;52783;50.502;8.190;2024-03-23T06:27:27;5.20;99.90
66013;DHT22;52783;50.502;8.190;2024-03-23T06:29:53;5.10;99.90
66013;DHT22;52783;50.502;8.190;2024-03-23T06:32:19;5.20;99.90
66013;DHT22;52783;50.502;8.190;2024-03-23T06:34:44;5.20;99.90
66013;DHT22;52783;50.502;8.190;2024-03-23T06:37:11;5.20;99.90
66013;DHT22;52783;50.502;8.190;2024-03-23T06:39:37;5.30;99.90
66013;DHT22;52783;50.502;8.190;2024-03-23T06:42:03;5.40;99.90
66013;DHT22;52783;50.502;8.190;2024-03-23T06:44:29;5.40;99.90
66013;DHT22;52783;50.502;8.190;2024-03-23T06:46:54;5.50;99.90
66013;DHT22;52783;50.502;8.190;2024-03-23T06:49:20;5.50;99.90
66013;DHT22;52783;50.502;8.190;2024-03-23T06:51:46;5.40;99.90
66013;DHT22;52783;50.502;8.190;2024-03-23T06:54:11;5.40;99.90
66013;DHT22;52783;50.502;8.190;2024-03-23T06:56:37;5.20;99.90
66013;DHT22;52783;50.502;8.190;2024-03-23T06:59:03;5.30;99.90
66013;DHT22;52783;50.502;8.190;2024-03-23T07:01:28;5.30;99.90
66013;DHT22;52783;50.502;8.190;2024-03-23T07:03:55;5.40;99.90
66013;DHT22;52783;50.502;8.190;2024-03-23T07:06:20;5.60;99.90
66013;DHT22;52783;50.502;8.190;2024-03-23T07:08:46;5.60;99.90
66013;DHT22;52783;50.502;8.190;2024-03-23T07:11:11;5.60;99.90
66013;DHT22;52783;50.502;8.190;2024-03-23T07:13:37;5.80;99.90
66013;DHT22;52783;50.502;8.190;2024-03-23T07:16:02;5.80;99.90
66013;DHT22;52783;50.502;8.190;2024-03-23T07:18:28;5.80;99.90
66013;DHT22;52783;50.502;8.190;2024-03-23T07:20:57;5.80;99.90
66013;DHT22;52783;50.502;8.190;2024-03-23T07:23:24;5.90;99.90
66013;DHT22;52783;50.502;8.190;2024-03-23T07:25:59;5.90;99.90
66013;DHT22;52783;50.502;8.190;2024-03-23T07:28:25;5.80;99.90
66013;DHT22;52783;50.502;8.190;2024-03-23T07:31:08;5.80;99.90
66013;DHT22;52783;50.502;8.190;2024-03-23T07:33:35;5.90;99.90
66013;DHT22;52783;50.502;8.190;2024-03-23T07:36:00;5.90;99.90
66013;DHT22;52783;50.502;8.190;2024-03-23T07:38:27;5.90;99.90
66013;DHT22;52783;50.502;8.190;2024-03-23T07:41:05;6.10;99.90
66013;DHT22;52783;50.502;8.190;2024-03-23T07:43:31;6.10;99.90
66013;DHT22;52783;50.502;8.190;2024-03-23T07:45:56;6.30;99.90
66013;DHT22;52783;50.502;8.190;2024-03-23T07:48:22;6.20;99.90
66013;DHT22;52783;50.502;8.190;2024-03-23T07:51:07;6.30;99.90
66013;DHT22;52783;50.502;8.190;2024-03-23T07:53:34;6.10;99.90
66013;DHT22;52783;50.502;8.190;2024-03-23T07:56:08;6.10;99.90
66013;DHT22;52783;50.502;8.190;2024-03-23T07:58:35;6.10;99.90
66013;DHT22;52783;50.502;8.190;2024-03-23T08:01:11;6.30;99.90
66013;DHT22;52783;50.502;8.190;2024-03-23T08:03:38;6.50;99.90
66013;DHT22;52783;50.502;8.190;2024-03-23T08:08:40;6.70;99.90
66013;DHT22;52783;50.502;8.190;2024-03-23T08:11:05;6.90;99.90
66013;DHT22;52783;50.502;8.190;2024-03-23T08:13:31;7.00;99.90
66013;DHT22;52783;50.502;8.190;2024-03-23T08:15:58;7.30;99.90
66013;DHT22;52783;50.502;8.190;2024-03-23T08:18:24;7.30;99.90
66013;DHT22;52783;50.502;8.190;2024-03-23T08:20:59;7.50;99.90
66013;DHT22;52783;50.502;8.190;2024-03-23T08:23:26;7.50;99.90
66013;DHT22;52783;50.502;8.190;2024-03-23T08:25:52;7.50;99.90
66013;DHT22;52783;50.502;8.190;2024-03-23T08:28:22;7.40;99.90
66013;DHT22;52783;50.502;8.190;2024-03-23T08:30:48;7.30;99.90
66013;DHT22;52783;50.502;8.190;2024-03-23T08:33:15;7.30;99.90
66013;DHT22;52783;50.502;8.190;2024-03-23T08:35:41;7.40;99.90
66013;DHT22;52783;50.502;8.190;2024-03-23T08:38:07;7.40;99.90
66013;DHT22;52783;50.502;8.190;2024-03-23T08:40:32;7.50;99.90
66013;DHT22;52783;50.502;8.190;2024-03-23T08:42:58;8.10;99.90
66013;DHT22;52783;50.502;8.190;2024-03-23T08:45:24;8.00;99.90
66013;DHT22;52783;50.502;8.190;2024-03-23T08:47:50;7.80;99.90
66013;DHT22;52783;50.502;8.190;2024-03-23T08:50:16;7.70;99.90
66013;DHT22;52783;50.502;8.190;2024-03-23T08:52:41;8.00;99.90
66013;DHT22;52783;50.502;8.190;2024-03-23T08:55:07;9.00;99.90
66013;DHT22;52783;50.502;8.190;2024-03-23T08:57:33;9.80;99.90
66013;DHT22;52783;50.502;8.190;2024-03-23T08:59:59;9.90;99.90
66013;DHT22;52783;50.502;8.190;2024-03-23T09:02:24;10.70;99.90
66013;DHT22;52783;50.502;8.190;2024-03-23T09:04:50;10.20;99.90
66013;DHT22;52783;50.502;8.190;2024-03-23T09:07:15;10.30;99.90
66013;DHT22;52783;50.502;8.190;2024-03-23T09:09:41;10.30;99.90
66013;DHT22;52783;50.502;8.190;2024-03-23T09:12:06;10.10;99.90
66013;DHT22;52783;50.502;8.190;2024-03-23T09:14:33;10.30;99.90
66013;DHT22;52783;50.502;8.190;2024-03-23T09:16:59;10.60;99.90
66013;DHT22;52783;50.502;8.190;2024-03-23T09:19:28;10.80;99.90
66013;DHT22;52783;50.502;8.190;2024-03-23T09:21:53;10.00;99.90
66013;DHT22;52783;50.502;8.190;2024-03-23T09:24:19;9.90;99.90
66013;DHT22;52783;50.502;8.190;2024-03-23T09:26:44;9.30;99.90
66013;DHT22;52783;50.502;8.190;2024-03-23T09:29:10;10.30;99.90
66013;DHT22;52783;50.502;8.190;2024-03-23T09:31:35;11.10;99.90
66013;DHT22;52783;50.502;8.190;2024-03-23T09:34:01;11.80;99.90
66013;DHT22;52783;50.502;8.190;2024-03-23T09:36:27;11.70;99.90
66013;DHT22;52783;50.502;8.190;2024-03-23T09:38:52;11.10;99.90
66013;DHT22;52783;50.502;8.190;2024-03-23T09:41:18;10.40;99.90
66013;DHT22;52783;50.502;8.190;2024-03-23T09:43:43;9.30;99.90
66013;DHT22;52783;50.502;8.190;2024-03-23T09:46:09;8.30;99.90
66013;DHT22;52783;50.502;8.190;2024-03-23T09:48:34;7.30;99.90
66013;DHT22;52783;50.502;8.190;2024-03-23T09:51:02;6.90;99.90
66013;DHT22;52783;50.502;8.190;2024-03-23T09:53:28;7.00;99.90
66013;DHT22;52783;50.502;8.190;2024-03-23T09:55:53;7.00;99.90
66013;DHT22;52783;50.502;8.190;2024-03-23T09:58:20;6.80;99.90
66013;DHT22;52783;50.502;8.190;2024-03-23T10:00:46;6.90;99.90
66013;DHT22;52783;50.502;8.190;2024-03-23T10:03:12;7.00;99.90
66013;DHT22;52783;50.502;8.190;2024-03-23T10:05:38;7.30;99.90
66013;DHT22;52783;50.502;8.190;2024-03-23T10:10:38;7.40;99.90
66013;DHT22;52783;50.502;8.190;2024-03-23T10:13:04;7.40;99.90
66013;DHT22;52783;50.502;8.190;2024-03-23T10:15:30;7.50;99.90
66013;DHT22;52783;50.502;8.190;2024-03-23T10:18:20;7.80;99.90
66013;DHT22;52783;50.502;8.190;2024-03-23T10:23:35;7.60;99.90
66013;DHT22;52783;50.502;8.190;2024-03-23T10:26:21;7.60;99.90
66013;DHT22;52783;50.502;8.190;2024-03-23T10:29:05;7.90;99.90
66013;DHT22;52783;50.502;8.190;2024-03-23T10:31:36;8.10;99.90
66013;DHT22;52783;50.502;8.190;2024-03-23T10:34:03;8.30;99.90
66013;DHT22;52783;50.502;8.190;2024-03-23T10:36:29;8.60;99.90
66013;DHT22;52783;50.502;8.190;2024-03-23T10:38:58;8.80;99.90
66013;DHT22;52783;50.502;8.190;2024-03-23T10:41:32;8.90;99.90
66013;DHT22;52783;50.502;8.190;2024-03-23T10:43:58;9.20;99.90
66013;DHT22;52783;50.502;8.190;2024-03-23T10:46:25;9.30;99.90
66013;DHT22;52783;50.502;8.190;2024-03-23T10:48:50;9.80;99.90
66013;DHT22;52783;50.502;8.190;2024-03-23T10:51:16;10.10;99.90
66013;DHT22;52783;50.502;8.190;2024-03-23T10:53:42;10.30;99.90
66013;DHT22;52783;50.502;8.190;2024-03-23T10:56:08;10.10;99.90
66013;DHT22;52783;50.502;8.190;2024-03-23T10:58:41;9.90;99.90
66013;DHT22;52783;50.502;8.190;2024-03-23T11:01:11;9.50;99.90
66013;DHT22;52783;50.502;8.190;2024-03-23T11:03:38;8.70;99.90
66013;DHT22;52783;50.502;8.190;2024-03-23T11:06:05;8.50;99.90
66013;DHT22;52783;50.502;8.190;2024-03-23T11:08:38;8.50;99.90
66013;DHT22;52783;50.502;8.190;2024-03-23T11:11:14;8.60;99.90
66013;DHT22;52783;50.502;8.190;2024-03-23T11:13:40;8.50;99.90
66013;DHT22;52783;50.502;8.190;2024-03-23T11:16:16;8.40;99.90
66013;DHT22;52783;50.502;8.190;2024-03-23T11:18:42;8.60;99.90
66013;DHT22;52783;50.502;8.190;2024-03-23T11:21:09;8.80;99.90
66013;DHT22;52783;50.502;8.190;2024-03-23T11:23:34;9.00;99.90
66013;DHT22;52783;50.502;8.190;2024-03-23T11:26:00;9.30;99.90
66013;DHT22;52783;50.502;8.190;2024-03-23T11:28:26;9.30;99.90
66013;DHT22;52783;50.502;8.190;2024-03-23T11:30:51;9.40;99.90
66013;DHT22;52783;50.502;8.190;2024-03-23T11:33:17;9.70;99.90
66013;DHT22;52783;50.502;8.190;2024-03-23T11:35:43;9.80;99.90
66013;DHT22;52783;50.502;8.190;2024-03-23T11:38:16;9.70;99.90
66013;DHT22;52783;50.502;8.190;2024-03-23T11:40:46;9.70;99.90
66013;DHT22;52783;50.502;8.190;2024-03-23T11:43:16;9.50;99.90
66013;DHT22;52783;50.502;8.190;2024-03-23T11:45:51;9.30;99.90
66013;DHT22;52783;50.502;8.190;2024-03-23T11:48:19;9.10;99.90
66013;DHT22;52783;50.502;8.190;2024-03-23T11:50:47;8.90;99.90
66013;DHT22;52783;50.502;8.190;2024-03-23T11:53:14;8.60;99.90
66013;DHT22;52783;50.502;8.190;2024-03-23T11:55:50;8.20;99.90
66013;DHT22;52783;50.502;8.190;2024-03-23T11:58:18;7.00;99.90
66013;DHT22;52783;50.502;8.190;2024-03-23T12:00:56;6.70;99.90
66013;DHT22;52783;50.502;8.190;2024-03-23T12:03:23;6.80;99.90
66013;DHT22;52783;50.502;8.190;2024-03-23T12:05:52;7.00;99.90
66013;DHT22;52783;50.502;8.190;2024-03-23T12:08:34;7.00;99.90
66013;DHT22;52783;50.502;8.190;2024-03-23T12:11:11;6.90;99.90
66013;DHT22;52783;50.502;8.190;2024-03-23T12:13:38;7.30;99.90
66013;DHT22;52783;50.502;8.190;2024-03-23T12:16:15;7.40;99.90
66013;DHT22;52783;50.502;8.190;2024-03-23T12:18:42;7.40;99.90
66013;DHT22;52783;50.502;8.190;2024-03-23T12:21:08;7.40;99.90
66013;DHT22;52783;50.502;8.190;2024-03-23T12:23:35;7.50;99.90
66013;DHT22;52783;50.502;8.190;2024-03-23T12:26:01;7.50;99.90
66013;DHT22;52783;50.502;8.190;2024-03-23T12:28:27;7.70;99.90
66013;DHT22;52783;50.502;8.190;2024-03-23T12:30:53;7.70;99.90
66013;DHT22;52783;50.502;8.190;2024-03-23T12:33:20;8.00;99.90
66013;DHT22;52783;50.502;8.190;2024-03-23T12:35:45;8.30;99.90
66013;DHT22;52783;50.502;8.190;2024-03-23T12:38:11;8.30;99.90
66013;DHT22;52783;50.502;8.190;2024-03-23T12:40:36;8.40;99.90
66013;DHT22;52783;50.502;8.190;2024-03-23T12:43:02;8.30;99.90
66013;DHT22;52783;50.502;8.190;2024-03-23T12:45:27;8.40;99.90
66013;DHT22;52783;50.502;8.190;2024-03-23T12:47:53;7.90;99.90
66013;DHT22;52783;50.502;8.190;2024-03-23T12:50:19;7.60;99.90
66013;DHT22;52783;50.502;8.190;2024-03-23T12:52:45;7.30;99.90
66013;DHT22;52783;50.502;8.190;2024-03-23T12:55:10;7.00;99.90
66013;DHT22;52783;50.502;8.190;2024-03-23T12:57:36;6.90;99.90
66013;DHT22;52783;50.502;8.190;2024-03-23T13:00:02;6.80;99.90
66013;DHT22;52783;50.502;8.190;2024-03-23T13:02:28;6.70;99.90
66013;DHT22;52783;50.502;8.190;2024-03-23T13:04:55;6.80;99.90
66013;DHT22;52783;50.502;8.190;2024-03-23T13:07:21;6.70;99.90
66013;DHT22;52783;50.502;8.190;2024-03-23T13:09:50;6.80;99.90
66013;DHT22;52783;50.502;8.190;2024-03-23T13:12:16;6.80;99.90
66013;DHT22;52783;50.502;8.190;2024-03-23T13:14:42;7.00;99.90
66013;DHT22;52783;50.502;8.190;2024-03-23T13:17:08;7.20;99.90
66013;DHT22;52783;50.502;8.190;2024-03-23T13:19:33;7.00;99.90
66013;DHT22;52783;50.502;8.190;2024-03-23T13:22:00;7.30;99.90
66013;DHT22;52783;50.502;8.190;2024-03-23T13:24:27;7.50;99.90
66013;DHT22;52783;50.502;8.190;2024-03-23T13:26:53;8.00;99.90
66013;DHT22;52783;50.502;8.190;2024-03-23T13:29:19;8.20;99.90
66013;DHT22;52783;50.502;8.190;2024-03-23T13:31:46;8.50;99.90
66013;DHT22;52783;50.502;8.190;2024-03-23T13:34:12;8.40;99.90
66013;DHT22;52783;50.502;8.190;2024-03-23T13:36:40;8.50;99.90
66013;DHT22;52783;50.502;8.190;2024-03-23T13:39:06;8.40;99.90
66013;DHT22;52783;50.502;8.190;2024-03-23T13:41:40;8.50;99.90
66013;DHT22;52783;50.502;8.190;2024-03-23T13:44:06;8.70;99.90
66013;DHT22;52783;50.502;8.190;2024-03-23T13:46:32;8.50;99.90
66013;DHT22;52783;50.502;8.190;2024-03-23T13:48:58;8.40;99.90
66013;DHT22;52783;50.502;8.190;2024-03-23T13:51:24;8.20;99.90
66013;DHT22;52783;50.502;8.190;2024-03-23T13:53:53;8.10;99.90
66013;DHT22;52783;50.502;8.190;2024-03-23T13:56:18;8.30;99.90
66013;DHT22;52783;50.502;8.190;2024-03-23T13:58:44;8.30;99.90
66013;DHT22;52783;50.502;8.190;2024-03-23T14:01:13;8.30;99.90
66013;DHT22;52783;50.502;8.190;2024-03-23T14:03:38;7.90;99.90
66013;DHT22;52783;50.502;8.190;2024-03-23T14:06:04;7.90;99.90
66013;DHT22;52783;50.502;8.190;2024-03-23T14:08:29;7.80;99.90
66013;DHT22;52783;50.502;8.190;2024-03-23T14:10:58;8.00;99.90
66013;DHT22;52783;50.502;8.190;2024-03-23T14:13:23;8.30;99.90
66013;DHT22;52783;50.502;8.190;2024-03-23T14:15:53;8.40;99.90
66013;DHT22;52783;50.502;8.190;2024-03-23T14:18:18;8.50;99.90
66013;DHT22;52783;50.502;8.190;2024-03-23T14:20:44;8.50;99.90
66013;DHT22;52783;50.502;8.190;2024-03-23T14:23:09;8.50;99.90
66013;DHT22;52783;50.502;8.190;2024-03-23T14:25:35;8.60;99.90
66013;DHT22;52783;50.502;8.190;2024-03-23T14:28:00;8.60;99.90
66013;DHT22;52783;50.502;8.190;2024-03-23T14:30:26;8.60;99.90
66013;DHT22;52783;50.502;8.190;2024-03-23T14:32:51;8.70;99.90
66013;DHT22;52783;50.502;8.190;2024-03-23T14:35:17;8.70;99.90
66013;DHT22;52783;50.502;8.190;2024-03-23T14:37:42;8.80;99.90
66013;DHT22;52783;50.502;8.190;2024-03-23T14:40:08;9.00;99.90
66013;DHT22;52783;50.502;8.190;2024-03-23T14:42:34;9.10;99.90
66013;DHT22;52783;50.502;8.190;2024-03-23T14:44:59;9.00;99.90
66013;DHT22;52783;50.502;8.190;2024-03-23T14:47:25;8.40;99.90
66013;DHT22;52783;50.502;8.190;2024-03-23T14:49:51;7.80;99.90
66013;DHT22;52783;50.502;8.190;2024-03-23T14:52:17;7.10;99.90
66013;DHT22;52783;50.502;8.190;2024-03-23T14:54:44;7.10;99.90
66013;DHT22;52783;50.502;8.190;2024-03-23T14:57:09;7.00;99.90
66013;DHT22;52783;50.502;8.190;2024-03-23T14:59:35;7.00;99.90
66013;DHT22;52783;50.502;8.190;2024-03-23T15:02:04;7.10;99.90
66013;DHT22;52783;50.502;8.190;2024-03-23T15:04:29;6.90;99.90
66013;DHT22;52783;50.502;8.190;2024-03-23T15:06:55;7.10;99.90
66013;DHT22;52783;50.502;8.190;2024-03-23T15:09:20;7.20;99.90
66013;DHT22;52783;50.502;8.190;2024-03-23T15:11:46;7.30;99.90
66013;DHT22;52783;50.502;8.190;2024-03-23T15:14:11;7.50;99.90
66013;DHT22;52783;50.502;8.190;2024-03-23T15:16:37;7.60;99.90
66013;DHT22;52783;50.502;8.190;2024-03-23T15:19:02;7.50;99.90
66013;DHT22;52783;50.502;8.190;2024-03-23T15:21:30;7.50;99.90
66013;DHT22;52783;50.502;8.190;2024-03-23T15:23:56;7.70;99.90
66013;DHT22;52783;50.502;8.190;2024-03-23T15:26:22;7.80;99.90
66013;DHT22;52783;50.502;8.190;2024-03-23T15:28:48;7.70;99.90
66013;DHT22;52783;50.502;8.190;2024-03-23T15:31:24;7.80;99.90
66013;DHT22;52783;50.502;8.190;2024-03-23T15:33:49;7.90;99.90
66013;DHT22;52783;50.502;8.190;2024-03-23T15:36:15;7.90;99.90
66013;DHT22;52783;50.502;8.190;2024-03-23T15:38:41;7.70;99.90
66013;DHT22;52783;50.502;8.190;2024-03-23T15:41:06;7.30;99.90
66013;DHT22;52783;50.502;8.190;2024-03-23T15:43:32;7.30;99.90
66013;DHT22;52783;50.502;8.190;2024-03-23T15:48:26;6.90;99.90
66013;DHT22;52783;50.502;8.190;2024-03-23T15:50:57;6.50;99.90
66013;DHT22;52783;50.502;8.190;2024-03-23T15:53:23;5.60;99.90
66013;DHT22;52783;50.502;8.190;2024-03-23T15:56:00;5.00;99.90
66013;DHT22;52783;50.502;8.190;2024-03-23T15:58:26;4.70;99.90
66013;DHT22;52783;50.502;8.190;2024-03-23T16:01:03;4.70;99.90
66013;DHT22;52783;50.502;8.190;2024-03-23T16:03:29;4.80;99.90
66013;DHT22;52783;50.502;8.190;2024-03-23T16:05:59;4.90;99.90
66013;DHT22;52783;50.502;8.190;2024-03-23T16:08:25;5.00;99.90
66013;DHT22;52783;50.502;8.190;2024-03-23T16:10:51;5.30;99.90
66013;DHT22;52783;50.502;8.190;2024-03-23T16:13:17;5.30;99.90
66013;DHT22;52783;50.502;8.190;2024-03-23T16:15:54;5.40;99.90
66013;DHT22;52783;50.502;8.190;2024-03-23T16:18:20;5.30;99.90
66013;DHT22;52783;50.502;8.190;2024-03-23T16:20:55;5.30;99.90
66013;DHT22;52783;50.502;8.190;2024-03-23T16:23:21;5.20;99.90
66013;DHT22;52783;50.502;8.190;2024-03-23T16:25:48;5.00;99.90
66013;DHT22;52783;50.502;8.190;2024-03-23T16:28:36;4.80;99.90
66013;DHT22;52783;50.502;8.190;2024-03-23T16:31:03;4.70;99.90
66013;DHT22;52783;50.502;8.190;2024-03-23T16:33:29;4.70;99.90
66013;DHT22;52783;50.502;8.190;2024-03-23T16:36:11;4.70;99.90
66013;DHT22;52783;50.502;8.190;2024-03-23T16:38:38;4.70;99.90
66013;DHT22;52783;50.502;8.190;2024-03-23T16:41:05;4.80;99.90
66013;DHT22;52783;50.502;8.190;2024-03-23T16:43:32;4.70;99.90
66013;DHT22;52783;50.502;8.190;2024-03-23T16:45:58;4.80;99.90